sensor_id;sensor_type;location;lat;lon;timestamp;temperature;humidity
63960;DHT22;50136;51.374;0.096;2023-12-29T00:05:16;10.10;99.90
63960;DHT22;50136;51.374;0.096;2023-12-29T00:15:19;10.20;99.90
63960;DHT22;50136;51.374;0.096;2023-12-29T00:25:21;10.10;99.90
63960;DHT22;50136;51.374;0.096;2023-12-29T00:35:26;10.00;99.90
63960;DHT22;50136;51.374;0.096;2023-12-29T00:45:28;9.80;99.90
63960;DHT22;50136;51.374;0.096;2023-12-29T00:55:32;9.80;99.90
63960;DHT22;50136;51.374;0.096;2023-12-29T01:05:34;9.70;99.90
63960;DHT22;50136;51.374;0.096;2023-12-29T01:15:38;9.60;99.90
63960;DHT22;50136;51.374;0.096;2023-12-29T01:25:40;9.50;99.90
63960;DHT22;50136;51.374;0.096;2023-12-29T01:35:43;9.60;99.90
63960;DHT22;50136;51.374;0.096;2023-12-29T01:45:45;9.60;99.90
63960;DHT22;50136;51.374;0.096;2023-12-29T01:56:00;9.70;99.90
63960;DHT22;50136;51.374;0.096;2023-12-29T02:06:03;9.70;99.90
63960;DHT22;50136;51.374;0.096;2023-12-29T02:16:12;9.60;99.90
63960;DHT22;50136;51.374;0.096;2023-12-29T02:26:20;9.70;99.90
63960;DHT22;50136;51.374;0.096;2023-12-29T02:36:24;9.60;99.90
63960;DHT22;50136;51.374;0.096;2023-12-29T02:46:28;9.70;99.90
63960;DHT22;50136;51.374;0.096;2023-12-29T02:56:30;9.70;99.90
63960;DHT22;50136;51.374;0.096;2023-12-29T03:06:34;9.70;99.90
63960;DHT22;50136;51.374;0.096;2023-12-29T03:16:36;9.70;99.90
63960;DHT22;50136;51.374;0.096;2023-12-29T03:26:39;9.70;99.90
63960;DHT22;50136;51.374;0.096;2023-12-29T03:36:41;9.70;99.90
63960;DHT22;50136;51.374;0.096;2023-12-29T03:46:46;9.80;99.90
63960;DHT22;50136;51.374;0.096;2023-12-29T03:56:48;9.90;99.90
63960;DHT22;50136;51.374;0.096;2023-12-29T04:06:51;10.00;99.90
63960;DHT22;50136;51.374;0.096;2023-12-29T04:16:53;10.20;99.90
63960;DHT22;50136;51.374;0.096;2023-12-29T04:26:56;10.20;99.90
63960;DHT22;50136;51.374;0.096;2023-12-29T04:36:58;10.30;99.90
63960;DHT22;50136;51.374;0.096;2023-12-29T04:47:02;10.30;99.90
63960;DHT22;50136;51.374;0.096;2023-12-29T04:57:04;10.30;99.90
63960;DHT22;50136;51.374;0.096;2023-12-29T05:07:09;10.40;99.90
63960;DHT22;50136;51.374;0.096;2023-12-29T05:17:11;10.50;99.90
63960;DHT22;50136;51.374;0.096;2023-12-29T05:27:14;10.40;99.90
63960;DHT22;50136;51.374;0.096;2023-12-29T05:37:16;10.50;99.90
63960;DHT22;50136;51.374;0.096;2023-12-29T05:47:20;10.60;99.90
63960;DHT22;50136;51.374;0.096;2023-12-29T05:57:22;10.60;99.90
63960;DHT22;50136;51.374;0.096;2023-12-29T06:07:25;10.70;99.90
63960;DHT22;50136;51.374;0.096;2023-12-29T06:17:27;10.70;99.90
63960;DHT22;50136;51.374;0.096;2023-12-29T06:27:31;10.70;99.90
63960;DHT22;50136;51.374;0.096;2023-12-29T06:37:33;10.50;99.90
63960;DHT22;50136;51.374;0.096;2023-12-29T06:47:36;10.40;99.90
63960;DHT22;50136;51.374;0.096;2023-12-29T06:57:38;10.30;99.90
63960;DHT22;50136;51.374;0.096;2023-12-29T07:07:42;10.10;99.90
63960;DHT22;50136;51.374;0.096;2023-12-29T07:17:44;10.10;99.90
63960;DHT22;50136;51.374;0.096;2023-12-29T07:27:48;10.20;99.90
63960;DHT22;50136;51.374;0.096;2023-12-29T07:37:50;10.30;99.90
63960;DHT22;50136;51.374;0.096;2023-12-29T07:47:55;10.40;99.90
63960;DHT22;50136;51.374;0.096;2023-12-29T07:57:57;10.30;99.90
63960;DHT22;50136;51.374;0.096;2023-12-29T08:08:02;10.20;99.90
63960;DHT22;50136;51.374;0.096;2023-12-29T08:18:04;10.00;99.90
63960;DHT22;50136;51.374;0.096;2023-12-29T08:28:08;9.90;99.90
63960;DHT22;50136;51.374;0.096;2023-12-29T08:38:10;9.80;99.90
63960;DHT22;50136;51.374;0.096;2023-12-29T08:48:14;9.60;99.90
63960;DHT22;50136;51.374;0.096;2023-12-29T08:58:16;9.50;99.90
63960;DHT22;50136;51.374;0.096;2023-12-29T09:08:20;9.50;99.90
63960;DHT22;50136;51.374;0.096;2023-12-29T09:18:22;9.70;99.90
63960;DHT22;50136;51.374;0.096;2023-12-29T09:28:25;9.90;99.90
63960;DHT22;50136;51.374;0.096;2023-12-29T09:38:27;10.40;99.90
63960;DHT22;50136;51.374;0.096;2023-12-29T09:48:32;10.60;99.90
63960;DHT22;50136;51.374;0.096;2023-12-29T09:58:35;11.30;99.90
63960;DHT22;50136;51.374;0.096;2023-12-29T10:08:44;12.10;99.90
63960;DHT22;50136;51.374;0.096;2023-12-29T10:18:53;12.20;99.90
63960;DHT22;50136;51.374;0.096;2023-12-29T10:28:59;13.00;99.90
63960;DHT22;50136;51.374;0.096;2023-12-29T10:39:06;12.80;99.90
63960;DHT22;50136;51.374;0.096;2023-12-29T10:49:10;12.20;99.90
63960;DHT22;50136;51.374;0.096;2023-12-29T10:59:13;12.10;99.90
63960;DHT22;50136;51.374;0.096;2023-12-29T11:09:27;11.80;99.90
63960;DHT22;50136;51.374;0.096;2023-12-29T11:19:29;11.80;99.90
63960;DHT22;50136;51.374;0.096;2023-12-29T11:29:33;11.90;99.90
63960;DHT22;50136;51.374;0.096;2023-12-29T11:39:40;12.20;99.90
63960;DHT22;50136;51.374;0.096;2023-12-29T11:50:02;12.30;99.90
63960;DHT22;50136;51.374;0.096;2023-12-29T12:00:05;12.00;99.90
63960;DHT22;50136;51.374;0.096;2023-12-29T12:10:32;11.70;99.90
63960;DHT22;50136;51.374;0.096;2023-12-29T12:20:34;11.60;99.90
63960;DHT22;50136;51.374;0.096;2023-12-29T12:30:38;11.50;99.90
63960;DHT22;50136;51.374;0.096;2023-12-29T12:40:40;11.40;99.90
63960;DHT22;50136;51.374;0.096;2023-12-29T12:50:45;11.40;99.90
63960;DHT22;50136;51.374;0.096;2023-12-29T13:00:47;11.50;99.90
63960;DHT22;50136;51.374;0.096;2023-12-29T13:10:55;11.60;99.90
63960;DHT22;50136;51.374;0.096;2023-12-29T13:20:58;11.60;99.90
63960;DHT22;50136;51.374;0.096;2023-12-29T13:31:02;11.80;99.90
63960;DHT22;50136;51.374;0.096;2023-12-29T13:41:07;11.80;99.90
63960;DHT22;50136;51.374;0.096;2023-12-29T13:51:11;11.50;99.90
63960;DHT22;50136;51.374;0.096;2023-12-29T14:01:14;11.50;99.90
63960;DHT22;50136;51.374;0.096;2023-12-29T14:11:17;11.40;99.90
63960;DHT22;50136;51.374;0.096;2023-12-29T14:21:23;11.30;99.90
63960;DHT22;50136;51.374;0.096;2023-12-29T14:31:27;11.40;99.90
63960;DHT22;50136;51.374;0.096;2023-12-29T14:41:30;11.20;99.90
63960;DHT22;50136;51.374;0.096;2023-12-29T14:51:33;11.10;99.90
63960;DHT22;50136;51.374;0.096;2023-12-29T15:01:35;11.00;99.90
63960;DHT22;50136;51.374;0.096;2023-12-29T15:11:39;11.00;99.90
63960;DHT22;50136;51.374;0.096;2023-12-29T15:21:41;10.90;99.90
63960;DHT22;50136;51.374;0.096;2023-12-29T15:31:47;11.00;99.90
63960;DHT22;50136;51.374;0.096;2023-12-29T15:41:49;10.80;99.90
63960;DHT22;50136;51.374;0.096;2023-12-29T15:51:56;10.80;99.90
63960;DHT22;50136;51.374;0.096;2023-12-29T16:02:01;10.70;99.90
63960;DHT22;50136;51.374;0.096;2023-12-29T16:12:06;10.60;99.90
63960;DHT22;50136;51.374;0.096;2023-12-29T16:22:08;10.60;99.90
63960;DHT22;50136;51.374;0.096;2023-12-29T16:32:19;10.50;99.90
63960;DHT22;50136;51.374;0.096;2023-12-29T16:42:21;10.50;99.90
63960;DHT22;50136;51.374;0.096;2023-12-29T16:52:27;10.50;99.90
63960;DHT22;50136;51.374;0.096;2023-12-29T17:02:32;10.40;99.90
63960;DHT22;50136;51.374;0.096;2023-12-29T17:12:36;10.20;99.90
63960;DHT22;50136;51.374;0.096;2023-12-29T17:22:38;9.90;99.90
63960;DHT22;50136;51.374;0.096;2023-12-29T17:32:42;9.90;99.90
63960;DHT22;50136;51.374;0.096;2023-12-29T17:42:44;10.00;99.90
63960;DHT22;50136;51.374;0.096;2023-12-29T17:52:48;10.00;99.90
63960;DHT22;50136;51.374;0.096;2023-12-29T18:02:50;9.90;99.90
63960;DHT22;50136;51.374;0.096;2023-12-29T18:12:54;9.70;99.90
63960;DHT22;50136;51.374;0.096;2023-12-29T18:22:56;9.60;99.90
63960;DHT22;50136;51.374;0.096;2023-12-29T18:33:01;9.40;99.90
63960;DHT22;50136;51.374;0.096;2023-12-29T18:43:04;9.30;99.90
63960;DHT22;50136;51.374;0.096;2023-12-29T18:53:08;9.10;99.90
63960;DHT22;50136;51.374;0.096;2023-12-29T19:03:13;9.10;99.90
63960;DHT22;50136;51.374;0.096;2023-12-29T19:13:17;8.90;99.90
63960;DHT22;50136;51.374;0.096;2023-12-29T19:23:20;8.80;99.90
63960;DHT22;50136;51.374;0.096;2023-12-29T19:33:23;8.70;99.90
63960;DHT22;50136;51.374;0.096;2023-12-29T19:43:25;8.60;99.90
63960;DHT22;50136;51.374;0.096;2023-12-29T19:53:29;8.50;99.90
63960;DHT22;50136;51.374;0.096;2023-12-29T20:03:31;8.40;99.90
63960;DHT22;50136;51.374;0.096;2023-12-29T20:13:35;8.30;99.90
63960;DHT22;50136;51.374;0.096;2023-12-29T20:23:37;8.30;99.90
63960;DHT22;50136;51.374;0.096;2023-12-29T20:33:40;8.20;99.90
63960;DHT22;50136;51.374;0.096;2023-12-29T20:43:43;8.20;99.90
63960;DHT22;50136;51.374;0.096;2023-12-29T20:53:46;8.10;99.90
63960;DHT22;50136;51.374;0.096;2023-12-29T21:03:49;8.00;99.90
63960;DHT22;50136;51.374;0.096;2023-12-29T21:13:52;7.90;99.90
63960;DHT22;50136;51.374;0.096;2023-12-29T21:23:55;7.80;99.90
63960;DHT22;50136;51.374;0.096;2023-12-29T21:33:58;7.80;99.90
63960;DHT22;50136;51.374;0.096;2023-12-29T21:44:01;7.80;99.90
63960;DHT22;50136;51.374;0.096;2023-12-29T21:54:04;7.70;99.90
63960;DHT22;50136;51.374;0.096;2023-12-29T22:04:07;7.70;99.90
63960;DHT22;50136;51.374;0.096;2023-12-29T22:14:12;7.70;99.90
63960;DHT22;50136;51.374;0.096;2023-12-29T22:24:14;7.60;99.90
63960;DHT22;50136;51.374;0.096;2023-12-29T22:34:19;7.60;99.90
63960;DHT22;50136;51.374;0.096;2023-12-29T22:44:21;7.50;99.90
63960;DHT22;50136;51.374;0.096;2023-12-29T22:54:24;7.50;99.90
63960;DHT22;50136;51.374;0.096;2023-12-29T23:04:27;7.40;99.90
63960;DHT22;50136;51.374;0.096;2023-12-29T23:14:30;7.50;99.90
63960;DHT22;50136;51.374;0.096;2023-12-29T23:24:32;7.50;99.90
63960;DHT22;50136;51.374;0.096;2023-12-29T23:34:39;7.50;99.90
63960;DHT22;50136;51.374;0.096;2023-12-29T23:44:41;7.40;99.90
63960;DHT22;50136;51.374;0.096;2023-12-29T23:54:45;7.40;99.90
